Time;durP1;ratioP1;P1;durP2;ratioP2;P2;SDS_P1;SDS_P2;PMS_P1;PMS_P2;Temp;Humidity;BMP_temperature;BMP_pressure;BME280_temperature;BME280_humidity;BME280_pressure;Samples;Min_cycle;Max_cycle;Signal;HPM_P1;HPM_P2
2022/09/03 00:01:49;;;;;;;3.38;2.30;;;;;;;;;;6282123;28;20047;-78
2022/09/03 00:05:15;;;;;;;2.33;2.13;;;;;;;;;;6286139;28;20048;-79
2022/09/03 00:08:30;;;;;;;3.00;2.33;;;;;;;;;;6285753;28;20455;-80
2022/09/03 00:11:44;;;;;;;2.33;2.13;;;;;;;;;;6294758;28;20059;-79
2022/09/03 00:14:50;;;;;;;3.10;2.30;;;;;;;;;;6277539;28;20167;-78
2022/09/03 00:17:57;;;;;;;3.30;2.20;;;;;;;;;;6277090;28;20044;-79
2022/09/03 00:21:12;;;;;;;2.70;2.50;;;;;;;;;;6282245;28;20048;-79
2022/09/03 00:24:18;;;;;;;3.75;2.70;;;;;;;;;;6279784;28;20422;-80
2022/09/03 00:27:24;;;;;;;3.15;2.30;;;;;;;;;;6287352;28;20045;-80
2022/09/03 00:30:27;;;;;;;2.45;2.25;;;;;;;;;;6280188;28;20055;-79
2022/09/03 00:33:31;;;;;;;2.35;2.15;;;;;;;;;;6283166;28;20076;-80
2022/09/03 00:36:41;;;;;;;6.28;2.50;;;;;;;;;;6283686;28;20040;-79
2022/09/03 00:39:43;;;;;;;2.83;1.92;;;;;;;;;;6288576;28;20048;-79
2022/09/03 00:42:56;;;;;;;3.30;2.17;;;;;;;;;;6271423;28;20110;-80
2022/09/03 00:46:05;;;;;;;2.80;2.22;;;;;;;;;;6281377;28;20048;-80
2022/09/03 00:49:10;;;;;;;3.25;2.40;;;;;;;;;;6281212;28;20419;-79
2022/09/03 00:52:27;;;;;;;3.78;2.60;;;;;;;;;;6286472;28;20044;-81
2022/09/03 00:55:50;;;;;;;3.00;2.67;;;;;;;;;;6276994;28;20053;-79
2022/09/03 00:59:05;;;;;;;2.47;2.20;;;;;;;;;;6283747;28;20049;-79
2022/09/03 01:02:22;;;;;;;2.60;2.40;;;;;;;;;;6283738;28;20043;-78
2022/09/03 01:05:43;;;;;;;3.05;2.47;;;;;;;;;;6295427;28;20705;-80
2022/09/03 01:09:10;;;;;;;2.40;2.17;;;;;;;;;;6275483;28;20749;-80
2022/09/03 01:12:28;;;;;;;4.10;2.60;;;;;;;;;;6256670;28;20056;-79
2022/09/03 01:15:42;;;;;;;3.47;2.60;;;;;;;;;;6268131;28;20052;-79
2022/09/03 01:19:13;;;;;;;3.15;2.40;;;;;;;;;;6267487;28;20069;-78
2022/09/03 01:22:37;;;;;;;3.47;2.45;;;;;;;;;;6221058;28;20041;-79
2022/09/03 01:25:52;;;;;;;5.43;2.53;;;;;;;;;;6281421;28;20112;-79
2022/09/03 01:29:11;;;;;;;2.40;2.08;;;;;;;;;;6272563;28;20060;-79
2022/09/03 01:32:22;;;;;;;2.28;2.08;;;;;;;;;;6292445;28;20045;-79
2022/09/03 01:35:46;;;;;;;2.63;2.40;;;;;;;;;;6286876;28;20041;-81
2022/09/03 01:39:00;;;;;;;3.53;2.40;;;;;;;;;;6284376;28;20049;-79
2022/09/03 01:42:17;;;;;;;2.40;2.10;;;;;;;;;;6291814;28;20043;-80
2022/09/03 01:45:24;;;;;;;2.65;2.45;;;;;;;;;;6286831;28;20097;-79
2022/09/03 01:49:11;;;;;;;3.63;2.40;;;;;;;;;;6279791;28;20333;-80
2022/09/03 01:52:28;;;;;;;3.85;2.55;;;;;;;;;;6259526;28;20044;-80
2022/09/03 01:55:55;;;;;;;6.80;2.67;;;;;;;;;;6278966;28;20044;-80
2022/09/03 01:59:18;;;;;;;2.85;2.10;;;;;;;;;;6241183;28;20041;-80
2022/09/03 02:02:24;;;;;;;2.90;2.30;;;;;;;;;;6301082;28;20044;-80
2022/09/03 02:05:26;;;;;;;3.25;2.53;;;;;;;;;;6293141;28;20133;-79
2022/09/03 02:08:30;;;;;;;2.40;2.20;;;;;;;;;;6302263;28;20043;-80
2022/09/03 02:11:32;;;;;;;3.03;2.33;;;;;;;;;;6287746;28;20228;-80
2022/09/03 02:14:34;;;;;;;2.83;2.55;;;;;;;;;;6268138;28;20045;-79
2022/09/03 02:17:36;;;;;;;3.25;2.42;;;;;;;;;;6264130;28;20077;-80
2022/09/03 02:20:39;;;;;;;3.85;2.50;;;;;;;;;;6297572;28;20045;-79
2022/09/03 02:23:41;;;;;;;2.60;2.40;;;;;;;;;;6290505;28;20059;-79
2022/09/03 02:26:43;;;;;;;2.90;2.50;;;;;;;;;;6289086;28;20315;-79
2022/09/03 02:29:44;;;;;;;3.15;2.60;;;;;;;;;;6292018;28;20431;-79
2022/09/03 02:32:46;;;;;;;3.33;2.60;;;;;;;;;;6290637;28;20432;-79
2022/09/03 02:35:48;;;;;;;2.70;2.50;;;;;;;;;;6296672;28;20051;-79
2022/09/03 02:38:50;;;;;;;2.90;2.60;;;;;;;;;;6290563;28;20064;-79
2022/09/03 02:42:01;;;;;;;3.08;2.78;;;;;;;;;;6291729;28;20055;-79
2022/09/03 02:45:17;;;;;;;3.05;2.70;;;;;;;;;;6297702;28;20036;-79
2022/09/03 02:48:22;;;;;;;4.07;3.00;;;;;;;;;;6291921;28;20048;-79
2022/09/03 02:51:25;;;;;;;4.10;3.00;;;;;;;;;;6293858;28;20415;-78
2022/09/03 02:54:27;;;;;;;5.30;3.63;;;;;;;;;;6289975;28;20202;-80
2022/09/03 02:57:29;;;;;;;5.80;3.35;;;;;;;;;;6285572;28;20040;-79
2022/09/03 03:00:32;;;;;;;4.03;3.30;;;;;;;;;;6291137;28;20260;-80
2022/09/03 03:03:33;;;;;;;3.28;2.90;;;;;;;;;;6293610;28;20045;-81
2022/09/03 03:06:35;;;;;;;3.28;2.97;;;;;;;;;;6291584;28;20048;-79
2022/09/03 03:09:37;;;;;;;4.85;2.95;;;;;;;;;;6285898;28;20048;-79
2022/09/03 03:12:38;;;;;;;3.97;2.88;;;;;;;;;;6284510;28;20048;-78
2022/09/03 03:15:40;;;;;;;3.10;2.80;;;;;;;;;;6292227;28;20067;-77
2022/09/03 03:18:45;;;;;;;4.03;2.95;;;;;;;;;;6289269;28;20450;-78
2022/09/03 03:21:46;;;;;;;4.45;2.83;;;;;;;;;;6283183;28;20045;-79
2022/09/03 03:24:49;;;;;;;3.08;2.85;;;;;;;;;;6264285;28;20176;-77
2022/09/03 03:27:55;;;;;;;4.78;2.83;;;;;;;;;;6256399;28;20052;-77
2022/09/03 03:30:57;;;;;;;3.28;2.97;;;;;;;;;;6284742;28;20175;-77
2022/09/03 03:34:01;;;;;;;4.22;2.85;;;;;;;;;;6270660;28;20056;-78
2022/09/03 03:37:04;;;;;;;3.10;2.58;;;;;;;;;;6274534;28;20061;-77
2022/09/03 03:40:07;;;;;;;2.63;2.42;;;;;;;;;;6273031;28;20055;-77
2022/09/03 03:43:08;;;;;;;3.20;2.83;;;;;;;;;;6283016;28;20500;-79
2022/09/03 03:46:11;;;;;;;3.58;2.92;;;;;;;;;;6280336;28;20044;-77
2022/09/03 03:49:12;;;;;;;3.85;2.90;;;;;;;;;;6273125;28;20679;-78
2022/09/03 03:52:14;;;;;;;2.45;2.25;;;;;;;;;;6271060;28;20032;-77
2022/09/03 03:55:16;;;;;;;4.78;3.05;;;;;;;;;;6287193;28;20045;-79
2022/09/03 03:58:17;;;;;;;2.80;2.60;;;;;;;;;;6288474;28;20052;-80
2022/09/03 04:01:22;;;;;;;3.03;2.67;;;;;;;;;;6282342;28;20483;-79
2022/09/03 04:04:24;;;;;;;2.95;2.55;;;;;;;;;;6268115;28;20067;-80
2022/09/03 04:07:26;;;;;;;3.25;2.47;;;;;;;;;;6262221;28;20375;-79
2022/09/03 04:10:27;;;;;;;4.15;3.00;;;;;;;;;;6279170;28;20052;-78
2022/09/03 04:13:50;;;;;;;3.53;2.72;;;;;;;;;;6281586;28;20044;-79
2022/09/03 04:16:52;;;;;;;3.00;2.70;;;;;;;;;;6283685;28;20503;-78
2022/09/03 04:19:55;;;;;;;3.63;3.33;;;;;;;;;;6288011;28;20094;-78
2022/09/03 04:23:00;;;;;;;5.90;3.70;;;;;;;;;;6283548;28;20052;-79
2022/09/03 04:26:02;;;;;;;3.70;2.88;;;;;;;;;;6286728;28;20392;-79
2022/09/03 04:29:08;;;;;;;3.63;3.00;;;;;;;;;;6274760;28;20049;-79
2022/09/03 04:35:30;;;;;;;3.40;3.10;;;;;;;;;;6283667;28;20055;-79
2022/09/03 04:38:33;;;;;;;3.35;3.05;;;;;;;;;;6285241;28;20411;-79
2022/09/03 04:41:36;;;;;;;7.40;3.25;;;;;;;;;;6278016;28;20660;-78
2022/09/03 04:44:39;;;;;;;3.80;3.40;;;;;;;;;;6278169;28;20041;-78
2022/09/03 04:47:41;;;;;;;4.05;3.15;;;;;;;;;;6280855;28;20037;-77
2022/09/03 04:50:43;;;;;;;4.00;3.10;;;;;;;;;;6279927;28;20060;-78
2022/09/03 04:53:46;;;;;;;3.35;3.05;;;;;;;;;;6279224;28;20045;-79
2022/09/03 04:56:48;;;;;;;5.10;3.40;;;;;;;;;;6270482;28;20063;-77
2022/09/03 04:59:50;;;;;;;6.38;3.75;;;;;;;;;;6275727;28;20049;-79
2022/09/03 05:02:52;;;;;;;3.40;3.10;;;;;;;;;;6281307;28;20037;-77
2022/09/03 05:05:54;;;;;;;6.03;3.47;;;;;;;;;;6273129;28;20044;-76
2022/09/03 05:08:57;;;;;;;3.55;3.05;;;;;;;;;;6281803;28;20522;-77
2022/09/03 05:11:58;;;;;;;4.38;3.17;;;;;;;;;;6269075;28;20048;-77
2022/09/03 05:15:00;;;;;;;3.85;3.35;;;;;;;;;;6282429;28;20059;-76
2022/09/03 05:18:02;;;;;;;3.80;3.00;;;;;;;;;;6278018;28;20064;-77
2022/09/03 05:21:05;;;;;;;3.03;2.75;;;;;;;;;;6277209;28;20044;-76
2022/09/03 05:24:08;;;;;;;3.35;3.05;;;;;;;;;;6271121;28;20052;-77
2022/09/03 05:27:09;;;;;;;4.25;3.13;;;;;;;;;;6271499;28;20048;-77
2022/09/03 05:30:12;;;;;;;3.20;2.90;;;;;;;;;;6273954;28;20047;-77
2022/09/03 05:33:14;;;;;;;2.80;2.60;;;;;;;;;;6283108;28;20059;-78
2022/09/03 05:36:24;;;;;;;3.17;2.83;;;;;;;;;;6277100;28;20503;-78
2022/09/03 05:39:29;;;;;;;3.15;2.90;;;;;;;;;;6266641;28;20166;-78
2022/09/03 05:42:33;;;;;;;4.07;3.00;;;;;;;;;;6268498;28;20106;-77
2022/09/03 05:45:35;;;;;;;17.35;3.47;;;;;;;;;;6264063;28;20037;-78
2022/09/03 05:48:39;;;;;;;3.50;3.20;;;;;;;;;;6277815;28;20048;-76
2022/09/03 05:51:41;;;;;;;4.85;3.45;;;;;;;;;;6265025;28;21005;-77
2022/09/03 05:54:43;;;;;;;5.50;3.92;;;;;;;;;;6271958;28;20383;-78
2022/09/03 05:57:50;;;;;;;4.07;3.40;;;;;;;;;;6267941;28;20036;-78
2022/09/03 06:00:51;;;;;;;4.40;3.58;;;;;;;;;;6277027;28;20492;-78
2022/09/03 06:03:57;;;;;;;5.65;3.50;;;;;;;;;;6273237;28;20041;-79
2022/09/03 06:06:58;;;;;;;4.00;3.60;;;;;;;;;;6276708;28;20056;-76
2022/09/03 06:10:00;;;;;;;5.40;3.10;;;;;;;;;;6274806;28;20491;-78
2022/09/03 06:13:02;;;;;;;6.28;3.13;;;;;;;;;;6275683;28;20415;-79
2022/09/03 06:16:06;;;;;;;4.10;3.27;;;;;;;;;;6277120;28;20044;-78
2022/09/03 06:19:09;;;;;;;4.43;3.35;;;;;;;;;;6276020;28;20048;-77
2022/09/03 06:22:11;;;;;;;4.35;3.20;;;;;;;;;;6249690;28;20044;-79
2022/09/03 06:25:14;;;;;;;3.38;3.08;;;;;;;;;;6271164;28;20048;-77
2022/09/03 06:28:15;;;;;;;4.60;2.95;;;;;;;;;;6288933;28;20076;-77
2022/09/03 06:31:24;;;;;;;5.70;3.83;;;;;;;;;;6291282;28;20053;-78
2022/09/03 06:34:27;;;;;;;3.97;2.85;;;;;;;;;;6272673;28;20050;-77
2022/09/03 06:37:29;;;;;;;3.10;2.80;;;;;;;;;;6271327;28;20045;-77
2022/09/03 06:40:30;;;;;;;5.60;3.35;;;;;;;;;;6274486;28;20052;-78
2022/09/03 06:43:35;;;;;;;4.60;2.90;;;;;;;;;;6274480;28;20052;-76
2022/09/03 06:46:41;;;;;;;3.95;2.90;;;;;;;;;;6281349;28;20045;-76
2022/09/03 06:49:43;;;;;;;5.32;2.92;;;;;;;;;;6291712;28;20058;-75
2022/09/03 06:52:55;;;;;;;3.42;2.97;;;;;;;;;;6293436;28;20097;-76
2022/09/03 06:56:06;;;;;;;5.53;3.75;;;;;;;;;;6288412;28;20051;-76
2022/09/03 06:59:10;;;;;;;4.13;3.20;;;;;;;;;;6275460;28;20049;-76
2022/09/03 07:02:12;;;;;;;3.72;3.15;;;;;;;;;;6296110;28;20046;-76
2022/09/03 07:05:14;;;;;;;2.72;2.53;;;;;;;;;;6296238;28;20057;-76
2022/09/03 07:08:16;;;;;;;3.63;2.40;;;;;;;;;;6288408;28;20048;-77
2022/09/03 07:11:21;;;;;;;3.63;2.67;;;;;;;;;;6294497;28;20047;-76
2022/09/03 07:14:23;;;;;;;4.28;2.53;;;;;;;;;;6257681;28;20041;-76
2022/09/03 07:17:25;;;;;;;3.97;2.40;;;;;;;;;;6270762;28;20045;-77
2022/09/03 07:20:26;;;;;;;10.48;3.33;;;;;;;;;;6265256;28;20052;-76
2022/09/03 07:23:29;;;;;;;8.18;3.30;;;;;;;;;;6261239;28;20056;-77
2022/09/03 07:26:37;;;;;;;4.15;3.13;;;;;;;;;;6265291;28;20048;-77
2022/09/03 07:29:39;;;;;;;2.92;2.63;;;;;;;;;;6271847;28;20048;-78
2022/09/03 07:32:40;;;;;;;3.60;2.38;;;;;;;;;;6277102;28;20522;-76
2022/09/03 07:35:42;;;;;;;2.85;2.50;;;;;;;;;;6277224;28;20037;-77
2022/09/03 07:38:45;;;;;;;6.90;2.70;;;;;;;;;;6275112;28;20044;-76
2022/09/03 07:41:49;;;;;;;;;;;;;;;;;;6280271;28;20049;-76
2022/09/03 07:44:51;;;;;;;2.60;2.20;;;;;;;;;;6267654;28;19931;-76
2022/09/03 07:47:53;;;;;;;3.08;1.88;;;;;;;;;;6274819;28;20036;-75
2022/09/03 07:51:00;;;;;;;3.05;1.60;;;;;;;;;;6271471;28;20041;-76
2022/09/03 07:54:05;;;;;;;3.28;2.08;;;;;;;;;;6276230;28;20037;-78
2022/09/03 07:57:07;;;;;;;3.45;1.95;;;;;;;;;;6278490;28;20054;-76
2022/09/03 08:00:11;;;;;;;2.95;1.40;;;;;;;;;;6275938;28;20047;-77
2022/09/03 08:03:13;;;;;;;4.18;1.50;;;;;;;;;;6269603;28;20052;-77
2022/09/03 08:06:17;;;;;;;2.42;1.33;;;;;;;;;;6278171;28;20052;-77
2022/09/03 08:09:18;;;;;;;3.72;1.60;;;;;;;;;;6279178;28;20040;-78
2022/09/03 08:12:20;;;;;;;2.38;1.40;;;;;;;;;;6273169;28;20052;-76
2022/09/03 08:15:22;;;;;;;3.08;1.20;;;;;;;;;;6278135;28;20074;-77
2022/09/03 08:18:24;;;;;;;5.18;1.77;;;;;;;;;;6279271;28;20040;-78
2022/09/03 08:21:26;;;;;;;2.85;1.50;;;;;;;;;;6280284;28;20068;-77
2022/09/03 08:24:28;;;;;;;3.63;1.55;;;;;;;;;;6281563;28;20044;-76
2022/09/03 08:27:30;;;;;;;2.63;1.73;;;;;;;;;;6278335;28;20056;-77
2022/09/03 08:30:35;;;;;;;3.55;1.40;;;;;;;;;;6277823;28;20055;-77
2022/09/03 08:33:49;;;;;;;2.20;1.30;;;;;;;;;;6251354;28;20092;-78
2022/09/03 08:36:53;;;;;;;2.25;1.50;;;;;;;;;;6280071;28;20090;-78
2022/09/03 08:39:54;;;;;;;1.70;1.30;;;;;;;;;;6281589;28;20048;-78
2022/09/03 08:43:05;;;;;;;3.20;1.52;;;;;;;;;;6278329;28;20045;-76
2022/09/03 08:46:08;;;;;;;2.55;1.40;;;;;;;;;;6241650;28;20202;-78
2022/09/03 08:49:13;;;;;;;1.50;1.33;;;;;;;;;;6269217;28;20124;-78
2022/09/03 08:52:37;;;;;;;2.10;1.90;;;;;;;;;;6276743;28;20138;-76
2022/09/03 08:55:49;;;;;;;1.70;1.38;;;;;;;;;;6270526;28;20041;-77
2022/09/03 08:58:51;;;;;;;2.15;1.40;;;;;;;;;;6275096;28;20511;-77
2022/09/03 09:02:10;;;;;;;1.38;1.27;;;;;;;;;;6272329;28;20048;-76
2022/09/03 09:05:40;;;;;;;3.47;1.60;;;;;;;;;;6271644;28;20048;-79
2022/09/03 09:08:55;;;;;;;4.68;1.58;;;;;;;;;;6274208;28;20040;-76
2022/09/03 09:12:09;;;;;;;3.25;1.88;;;;;;;;;;6275151;28;20060;-77
2022/09/03 09:15:37;;;;;;;3.03;2.22;;;;;;;;;;6273882;28;20127;-77
2022/09/03 09:19:10;;;;;;;3.10;1.90;;;;;;;;;;6274676;28;20040;-77
2022/09/03 09:22:36;;;;;;;2.85;1.50;;;;;;;;;;6273654;28;20049;-77
2022/09/03 09:25:47;;;;;;;2.00;1.40;;;;;;;;;;6274999;28;20057;-78
2022/09/03 09:29:01;;;;;;;3.35;1.60;;;;;;;;;;6283867;28;20041;-77
2022/09/03 09:32:08;;;;;;;3.38;1.52;;;;;;;;;;6277274;28;20048;-78
2022/09/03 09:35:10;;;;;;;6.10;4.03;;;;;;;;;;6273598;28;20118;-77
2022/09/03 09:38:12;;;;;;;2.60;1.53;;;;;;;;;;6277895;28;20045;-77
2022/09/03 09:41:19;;;;;;;6.10;2.83;;;;;;;;;;6271658;28;20044;-80
2022/09/03 09:44:21;;;;;;;4.10;3.20;;;;;;;;;;6281632;28;20052;-76
2022/09/03 09:47:29;;;;;;;2.88;2.45;;;;;;;;;;6268568;28;20052;-77
2022/09/03 09:50:31;;;;;;;4.50;1.90;;;;;;;;;;6274463;28;20128;-76
2022/09/03 09:53:33;;;;;;;4.78;1.63;;;;;;;;;;6272901;28;20392;-76
2022/09/03 09:56:35;;;;;;;1.60;1.50;;;;;;;;;;6274074;28;20045;-76
2022/09/03 09:59:37;;;;;;;2.05;1.35;;;;;;;;;;6266305;28;20124;-76
2022/09/03 10:02:47;;;;;;;2.00;1.60;;;;;;;;;;6278954;28;20844;-78
2022/09/03 10:06:52;;;;;;;2.83;1.65;;;;;;;;;;6276308;28;20045;-77
2022/09/03 10:09:27;;;;;;;1.65;1.30;;;;;;;;;;6278208;28;20048;-76
2022/09/03 10:12:43;;;;;;;2.83;1.60;;;;;;;;;;6272002;28;20056;-77
2022/09/03 10:16:03;;;;;;;2.50;1.50;;;;;;;;;;6270967;28;20060;-77
2022/09/03 10:19:16;;;;;;;2.10;1.30;;;;;;;;;;6275757;28;20060;-76
2022/09/03 10:22:20;;;;;;;1.48;1.20;;;;;;;;;;6269615;28;20913;-77
2022/09/03 10:25:28;;;;;;;3.42;1.52;;;;;;;;;;6268934;28;20074;-77
2022/09/03 10:28:30;;;;;;;1.55;1.40;;;;;;;;;;6270683;28;20121;-76
2022/09/03 10:31:39;;;;;;;3.05;1.48;;;;;;;;;;6269593;28;20074;-77
2022/09/03 10:35:02;;;;;;;5.03;1.73;;;;;;;;;;6272851;28;20072;-76
2022/09/03 10:38:16;;;;;;;3.35;1.20;;;;;;;;;;6267850;28;20059;-76
2022/09/03 10:41:18;;;;;;;1.80;1.52;;;;;;;;;;6272391;28;20051;-76
2022/09/03 10:44:59;;;;;;;1.77;1.40;;;;;;;;;;6275745;28;20108;-75
2022/09/03 10:48:23;;;;;;;2.53;1.52;;;;;;;;;;6266437;28;20052;-76
2022/09/03 10:51:39;;;;;;;2.30;1.50;;;;;;;;;;6289340;28;20045;-76
2022/09/03 10:54:58;;;;;;;3.08;1.60;;;;;;;;;;6263489;28;20048;-76
2022/09/03 10:58:24;;;;;;;1.95;1.33;;;;;;;;;;6273494;28;20056;-77
2022/09/03 11:01:35;;;;;;;3.45;1.80;;;;;;;;;;6275954;28;20044;-76
2022/09/03 11:04:51;;;;;;;2.13;1.40;;;;;;;;;;6266758;28;20052;-74
2022/09/03 11:08:00;;;;;;;3.38;1.90;;;;;;;;;;6279230;28;20040;-76
2022/09/03 11:11:14;;;;;;;1.60;1.50;;;;;;;;;;6276701;28;20123;-77
2022/09/03 11:14:29;;;;;;;1.70;1.40;;;;;;;;;;6276304;28;20053;-77
2022/09/03 11:17:45;;;;;;;3.22;1.65;;;;;;;;;;6275591;28;20492;-77
2022/09/03 11:20:49;;;;;;;2.00;1.60;;;;;;;;;;6275004;28;20194;-77
2022/09/03 11:24:04;;;;;;;2.08;1.65;;;;;;;;;;6274656;28;20584;-77
2022/09/03 11:27:21;;;;;;;1.98;1.60;;;;;;;;;;6277848;28;20055;-77
2022/09/03 11:30:31;;;;;;;1.85;1.67;;;;;;;;;;6275548;28;20135;-76
2022/09/03 11:33:39;;;;;;;3.70;1.73;;;;;;;;;;6268394;28;20049;-76
2022/09/03 11:36:41;;;;;;;2.60;2.40;;;;;;;;;;6271140;28;20051;-76
2022/09/03 11:40:18;;;;;;;2.63;2.10;;;;;;;;;;6270176;28;20057;-77
2022/09/03 11:43:22;;;;;;;3.22;2.25;;;;;;;;;;6274841;28;20044;-77
2022/09/03 11:46:29;;;;;;;4.60;2.30;;;;;;;;;;6267384;28;20446;-75
2022/09/03 11:49:34;;;;;;;;;;;;;;;;;;6275226;28;20131;-77
2022/09/03 11:52:39;;;;;;;1.70;1.60;;;;;;;;;;6270847;28;19931;-75
2022/09/03 11:55:54;;;;;;;2.05;1.80;;;;;;;;;;6255197;28;20051;-76
2022/09/03 11:59:21;;;;;;;2.03;1.83;;;;;;;;;;6271963;28;20126;-77
2022/09/03 12:02:33;;;;;;;2.53;1.95;;;;;;;;;;6278280;28;20078;-76
2022/09/03 12:06:09;;;;;;;3.20;2.00;;;;;;;;;;6280831;28;20148;-76
2022/09/03 12:09:29;;;;;;;3.30;1.90;;;;;;;;;;6239899;28;20182;-77
2022/09/03 12:13:01;;;;;;;2.13;1.88;;;;;;;;;;6277049;28;20037;-75
2022/09/03 12:16:31;;;;;;;3.80;2.00;;;;;;;;;;6274305;28;20100;-77
2022/09/03 12:19:52;;;;;;;1.88;1.63;;;;;;;;;;6274640;28;20524;-77
2022/09/03 12:22:54;;;;;;;2.78;2.22;;;;;;;;;;6257991;28;20161;-77
2022/09/03 12:26:05;;;;;;;3.53;2.40;;;;;;;;;;6266543;28;20049;-76
2022/09/03 12:29:21;;;;;;;2.55;2.00;;;;;;;;;;6271287;28;20041;-77
2022/09/03 12:32:36;;;;;;;4.03;2.30;;;;;;;;;;6274603;28;20055;-75
2022/09/03 12:35:37;;;;;;;2.45;2.22;;;;;;;;;;6278297;28;20037;-77
2022/09/03 12:39:17;;;;;;;2.30;2.10;;;;;;;;;;6274615;28;20105;-76
2022/09/03 12:42:30;;;;;;;2.60;2.40;;;;;;;;;;6252212;28;20400;-75
2022/09/03 12:45:45;;;;;;;2.20;2.00;;;;;;;;;;6238629;28;20133;-77
2022/09/03 12:49:07;;;;;;;2.30;2.10;;;;;;;;;;6237469;28;20044;-79
2022/09/03 12:52:32;;;;;;;2.80;2.08;;;;;;;;;;6243898;28;20292;-79
2022/09/03 12:55:42;;;;;;;3.00;1.92;;;;;;;;;;6248123;28;20068;-78
2022/09/03 12:58:54;;;;;;;2.28;1.92;;;;;;;;;;6257285;28;20099;-76
2022/09/03 13:02:03;;;;;;;4.63;2.25;;;;;;;;;;6279100;28;20060;-76
2022/09/03 13:05:13;;;;;;;2.28;2.08;;;;;;;;;;6273679;28;20041;-75
2022/09/03 13:08:28;;;;;;;4.78;2.28;;;;;;;;;;6274786;28;20055;-74
2022/09/03 13:11:36;;;;;;;6.10;2.85;;;;;;;;;;6270726;28;20040;-75
2022/09/03 13:14:46;;;;;;;2.60;2.10;;;;;;;;;;6250336;28;20053;-74
2022/09/03 13:18:03;;;;;;;4.18;2.20;;;;;;;;;;6270899;28;20456;-77
2022/09/03 13:21:23;;;;;;;6.57;2.30;;;;;;;;;;6224632;28;20041;-76
2022/09/03 13:24:38;;;;;;;3.67;2.25;;;;;;;;;;6273348;28;20561;-76
2022/09/03 13:27:43;;;;;;;3.78;2.13;;;;;;;;;;6265170;28;20144;-77
2022/09/03 13:30:56;;;;;;;2.25;1.90;;;;;;;;;;6273443;28;20125;-76
2022/09/03 13:34:04;;;;;;;3.47;2.10;;;;;;;;;;6275290;28;20037;-76
2022/09/03 13:37:23;;;;;;;2.42;1.90;;;;;;;;;;6249821;28;20463;-76
2022/09/03 13:40:34;;;;;;;3.03;2.00;;;;;;;;;;6283106;28;20056;-80
2022/09/03 13:43:41;;;;;;;3.60;2.22;;;;;;;;;;6281467;28;20110;-78
2022/09/03 13:46:59;;;;;;;2.13;1.92;;;;;;;;;;6287619;28;20048;-77
2022/09/03 13:50:21;;;;;;;4.57;1.90;;;;;;;;;;6291249;28;20048;-79
2022/09/03 13:54:05;;;;;;;2.30;2.10;;;;;;;;;;6285613;28;20055;-79
2022/09/03 13:57:24;;;;;;;2.80;2.10;;;;;;;;;;6284359;28;20060;-77
2022/09/03 14:00:37;;;;;;;3.85;2.00;;;;;;;;;;6289107;28;20051;-79
2022/09/03 14:03:51;;;;;;;2.85;1.65;;;;;;;;;;6277554;28;20599;-78
2022/09/03 14:07:06;;;;;;;1.92;1.67;;;;;;;;;;6279601;28;20064;-80
2022/09/03 14:10:13;;;;;;;2.42;2.20;;;;;;;;;;6289594;28;20044;-79
2022/09/03 14:13:29;;;;;;;2.50;1.90;;;;;;;;;;6269890;28;20037;-78
2022/09/03 14:16:34;;;;;;;1.98;1.88;;;;;;;;;;6287251;28;20051;-80
2022/09/03 14:19:54;;;;;;;1.85;1.75;;;;;;;;;;6291422;28;20049;-78
2022/09/03 14:23:21;;;;;;;1.90;1.80;;;;;;;;;;6281404;28;20052;-77
2022/09/03 14:26:31;;;;;;;3.20;2.05;;;;;;;;;;6282258;28;20053;-78
2022/09/03 14:29:51;;;;;;;2.33;2.13;;;;;;;;;;6294236;28;20045;-79
2022/09/03 14:33:22;;;;;;;2.58;2.05;;;;;;;;;;6286180;28;20064;-78
2022/09/03 14:36:39;;;;;;;2.53;1.80;;;;;;;;;;6270670;28;20048;-78
2022/09/03 14:39:49;;;;;;;1.98;1.88;;;;;;;;;;6283502;28;20551;-78
2022/09/03 14:43:09;;;;;;;3.47;1.70;;;;;;;;;;6287016;28;20676;-77
2022/09/03 14:46:54;;;;;;;2.13;1.90;;;;;;;;;;6253385;28;20042;-76
2022/09/03 14:50:32;;;;;;;2.40;2.17;;;;;;;;;;6257527;28;20047;-78
2022/09/03 14:54:10;;;;;;;2.22;1.90;;;;;;;;;;6269010;28;20055;-78
2022/09/03 14:57:25;;;;;;;2.78;2.00;;;;;;;;;;6281584;28;20063;-80
2022/09/03 15:00:42;;;;;;;2.45;1.80;;;;;;;;;;6266492;28;20060;-81
2022/09/03 15:04:23;;;;;;;3.47;2.08;;;;;;;;;;6282699;28;20051;-76
2022/09/03 15:07:44;;;;;;;1.95;1.85;;;;;;;;;;6282062;28;20535;-78
2022/09/03 15:10:54;;;;;;;2.22;2.03;;;;;;;;;;6276124;28;20044;-79
2022/09/03 15:14:07;;;;;;;5.07;1.83;;;;;;;;;;6280959;28;20047;-80
2022/09/03 15:17:27;;;;;;;1.97;1.67;;;;;;;;;;6284876;28;20049;-79
2022/09/03 15:20:49;;;;;;;2.03;1.80;;;;;;;;;;6279220;28;20676;-81
2022/09/03 15:24:10;;;;;;;3.05;1.98;;;;;;;;;;6280350;28;20061;-78
2022/09/03 15:27:30;;;;;;;3.45;1.90;;;;;;;;;;6277240;28;20051;-78
2022/09/03 15:30:39;;;;;;;2.47;1.77;;;;;;;;;;6280187;28;20098;-79
2022/09/03 15:33:56;;;;;;;1.85;1.70;;;;;;;;;;6283356;28;20044;-78
2022/09/03 15:37:03;;;;;;;2.03;1.83;;;;;;;;;;6279664;28;20040;-79
2022/09/03 15:40:36;;;;;;;2.10;1.90;;;;;;;;;;6281917;28;20040;-79
2022/09/03 15:43:42;;;;;;;2.70;2.10;;;;;;;;;;6278534;28;20633;-80
2022/09/03 15:46:44;;;;;;;4.18;2.03;;;;;;;;;;6276548;28;20099;-81
2022/09/03 15:50:05;;;;;;;2.58;2.10;;;;;;;;;;6276327;28;20499;-81
2022/09/03 15:53:36;;;;;;;2.50;2.30;;;;;;;;;;6272719;28;20436;-77
2022/09/03 15:57:04;;;;;;;3.35;2.33;;;;;;;;;;6272218;28;20495;-81
2022/09/03 16:00:11;;;;;;;2.75;2.40;;;;;;;;;;6282854;28;20055;-80
2022/09/03 16:03:17;;;;;;;3.08;2.45;;;;;;;;;;6283686;28;20048;-82
2022/09/03 16:06:52;;;;;;;2.45;2.25;;;;;;;;;;6284220;28;20055;-82
2022/09/03 16:10:15;;;;;;;2.83;2.53;;;;;;;;;;6280415;28;20055;-80
2022/09/03 16:13:53;;;;;;;5.55;2.42;;;;;;;;;;6272583;28;20048;-76
2022/09/03 16:16:58;;;;;;;2.90;2.58;;;;;;;;;;6270291;28;20048;-79
2022/09/03 16:20:34;;;;;;;2.90;2.70;;;;;;;;;;6276735;28;20048;-78
2022/09/03 16:23:54;;;;;;;4.07;2.70;;;;;;;;;;6279138;28;20157;-77
2022/09/03 16:27:07;;;;;;;2.75;2.55;;;;;;;;;;6263321;28;20123;-77
2022/09/03 16:30:42;;;;;;;2.30;2.08;;;;;;;;;;6253356;28;20044;-81
2022/09/03 16:33:56;;;;;;;4.47;2.40;;;;;;;;;;6275760;28;20103;-80
2022/09/03 16:37:18;;;;;;;2.47;2.22;;;;;;;;;;6283564;28;20049;-78
2022/09/03 16:40:44;;;;;;;2.88;2.13;;;;;;;;;;6250541;28;21479;-80
2022/09/03 16:44:11;;;;;;;3.83;2.72;;;;;;;;;;6263106;28;20053;-80
2022/09/03 16:47:47;;;;;;;2.50;2.30;;;;;;;;;;6274047;28;20055;-78
2022/09/03 16:51:21;;;;;;;4.45;2.55;;;;;;;;;;6263516;28;20048;-79
2022/09/03 16:54:43;;;;;;;3.40;2.92;;;;;;;;;;6264883;28;20044;-78
2022/09/03 16:58:18;;;;;;;2.75;2.30;;;;;;;;;;6265760;28;20042;-77
2022/09/03 17:01:44;;;;;;;2.50;2.30;;;;;;;;;;6275581;28;20040;-78
2022/09/03 17:05:18;;;;;;;2.40;2.20;;;;;;;;;;6248016;28;20044;-79
2022/09/03 17:08:52;;;;;;;4.82;2.30;;;;;;;;;;6219911;28;20116;-78
2022/09/03 17:11:57;;;;;;;4.55;2.20;;;;;;;;;;6265424;28;20813;-80
2022/09/03 17:15:06;;;;;;;2.97;2.47;;;;;;;;;;6265239;28;20067;-79
2022/09/03 17:18:18;;;;;;;3.30;2.30;;;;;;;;;;6271082;28;20040;-77
2022/09/03 17:21:47;;;;;;;3.80;2.22;;;;;;;;;;6273568;28;20067;-80
2022/09/03 17:24:59;;;;;;;2.35;2.15;;;;;;;;;;6274692;28;20059;-79
2022/09/03 17:28:37;;;;;;;3.72;2.50;;;;;;;;;;6270167;28;20049;-78
2022/09/03 17:32:16;;;;;;;2.75;2.30;;;;;;;;;;6262695;28;20473;-79
2022/09/03 17:35:49;;;;;;;2.50;2.30;;;;;;;;;;6284082;28;20044;-79
2022/09/03 17:39:15;;;;;;;;;;;;;;;;;;6280520;28;20512;-78
2022/09/03 17:42:39;;;;;;;3.28;2.30;;;;;;;;;;6267107;28;19921;-77
2022/09/03 17:46:06;;;;;;;2.50;2.30;;;;;;;;;;6276593;28;20389;-77
2022/09/03 17:49:21;;;;;;;2.55;1.92;;;;;;;;;;6284248;28;20051;-78
2022/09/03 17:52:34;;;;;;;3.20;2.05;;;;;;;;;;6283858;28;20036;-77
2022/09/03 17:55:40;;;;;;;2.25;2.03;;;;;;;;;;6279040;28;20048;-79
2022/09/03 17:58:48;;;;;;;2.30;2.10;;;;;;;;;;6283179;28;20053;-80
2022/09/03 18:01:59;;;;;;;3.15;2.30;;;;;;;;;;6286485;28;20060;-77
2022/09/03 18:05:01;;;;;;;2.13;1.90;;;;;;;;;;6283246;28;20875;-80
2022/09/03 18:08:25;;;;;;;5.35;1.92;;;;;;;;;;6284681;28;20102;-79
2022/09/03 18:11:37;;;;;;;2.10;1.90;;;;;;;;;;6277616;28;20491;-78
2022/09/03 18:14:46;;;;;;;2.60;2.30;;;;;;;;;;6285833;28;20044;-77
2022/09/03 18:17:57;;;;;;;5.45;3.08;;;;;;;;;;6249236;28;20463;-76
2022/09/03 20:13:25;;;;;;;5.25;3.25;;;;;;;;;;6272354;28;20128;-79
2022/09/03 20:16:45;;;;;;;4.18;3.20;;;;;;;;;;6269522;28;20056;-78
2022/09/03 20:20:20;;;;;;;3.97;3.10;;;;;;;;;;6267543;28;20187;-79
2022/09/03 20:23:46;;;;;;;4.65;3.10;;;;;;;;;;6261200;28;20388;-79
2022/09/03 20:27:08;;;;;;;9.90;5.90;;;;;;;;;;6278917;28;20090;-79
2022/09/03 20:30:18;;;;;;;6.47;5.88;;;;;;;;;;6266067;28;20082;-79
2022/09/03 20:33:29;;;;;;;5.20;4.22;;;;;;;;;;6263459;28;20045;-79
2022/09/03 20:36:54;;;;;;;;;;;;;;;;;;6242252;28;20051;-79
2022/09/03 20:40:00;;;;;;;7.70;3.70;;;;;;;;;;6247612;28;20347;-79
2022/09/03 20:43:15;;;;;;;5.13;3.58;;;;;;;;;;6250637;28;20049;-79
2022/09/03 20:46:54;;;;;;;5.38;4.88;;;;;;;;;;6265413;28;20041;-79
2022/09/03 20:50:08;;;;;;;4.32;3.70;;;;;;;;;;6266704;28;20048;-79
2022/09/03 20:53:31;;;;;;;3.55;3.25;;;;;;;;;;6273615;28;20040;-78
2022/09/03 20:57:07;;;;;;;3.33;3.03;;;;;;;;;;6265837;28;20047;-79
2022/09/03 21:00:17;;;;;;;4.13;3.13;;;;;;;;;;6263628;28;20063;-79
2022/09/03 21:03:56;;;;;;;5.43;3.53;;;;;;;;;;6281113;28;20048;-79
2022/09/03 21:07:12;;;;;;;4.15;3.00;;;;;;;;;;6254740;28;20047;-79